首页
METAR-TAF:

METAR-TAF

机场 :

Chanute, 堪薩斯州, 美国

纬度: 37-40-13N, 经度: 095-29-03W, 海拔: 305米

当前天气观测

该预报发布于36分钟前的23:52 UTC
风速12节,风向北转西北,有时为18节阵风
温度 0°C
湿度 51%
气压 1018 hPa
能見度: 16.1公里
天空无云

METAR: KCNU 092352Z AUTO 33012G18KT 10SM CLR 00/M09 A3006 RMK AO2 PK WND 34026/2330 SLP183 T00001089 10039 20000 51042

时间: 18:28 (00:28 UTC)

预报

该预报发布于1小时和8分钟前的23:20 UTC
预报有效从10日的 00点(UTC)到 10日的 24点(UTC)
风速11节,风向北转西北,有时为17节阵风
能見度: 10公里
多云层高于25000英尺
从 10日的 0200点(UTC)
风速5节,风向多变
能見度: 10公里
多云层高于25000英尺
从 10日的 1000点(UTC)
风速4节,风向多变
能見度: 10公里
散云层高于25000英尺

TAF: KCNU 092320Z 1000/1024 34011G17KT P6SM BKN250 FM100200 VRB05KT P6SM BKN250 FM101000 VRB04KT P6SM SCT250

超过4000个机场的气象观测和天气预报(METAR&TAF报告)。

可查询的气象台以黄色和红色小点在地图上表示。

将鼠标移到小点上方,可查看气象台名称。

然后点击查看天气观测和预报。

如需切换地图:点击带黑十字的绿色按钮放大地图;点击带横线的绿色按钮缩小地图;或者点击绿色箭头查看邻近地区的地图。


METAR-TAF: